sensor_id;sensor_type;location;lat;lon;timestamp;temperature;humidity
55211;DHT22;41082;52.822;6.666;2022-08-19T00:01:48;17.10;99.90
55211;DHT22;41082;52.822;6.666;2022-08-19T00:04:15;17.00;99.90
55211;DHT22;41082;52.822;6.666;2022-08-19T00:06:43;17.00;99.90
55211;DHT22;41082;52.822;6.666;2022-08-19T00:09:12;17.00;99.90
55211;DHT22;41082;52.822;6.666;2022-08-19T00:11:38;17.00;99.90
55211;DHT22;41082;52.822;6.666;2022-08-19T00:14:06;17.00;99.90
55211;DHT22;41082;52.822;6.666;2022-08-19T00:16:32;16.90;99.90
55211;DHT22;41082;52.822;6.666;2022-08-19T00:18:57;16.90;99.90
55211;DHT22;41082;52.822;6.666;2022-08-19T00:21:24;16.90;99.90
55211;DHT22;41082;52.822;6.666;2022-08-19T00:23:53;16.80;99.90
55211;DHT22;41082;52.822;6.666;2022-08-19T00:26:19;16.80;99.90
55211;DHT22;41082;52.822;6.666;2022-08-19T00:28:44;16.80;99.90
55211;DHT22;41082;52.822;6.666;2022-08-19T00:31:10;16.80;99.90
55211;DHT22;41082;52.822;6.666;2022-08-19T00:33:36;16.80;99.90
55211;DHT22;41082;52.822;6.666;2022-08-19T00:36:04;16.80;99.90
55211;DHT22;41082;52.822;6.666;2022-08-19T00:38:31;16.70;99.90
55211;DHT22;41082;52.822;6.666;2022-08-19T00:40:58;16.70;99.90
55211;DHT22;41082;52.822;6.666;2022-08-19T00:43:25;16.70;99.90
55211;DHT22;41082;52.822;6.666;2022-08-19T00:45:51;16.70;99.90
55211;DHT22;41082;52.822;6.666;2022-08-19T00:48:18;16.70;99.90
55211;DHT22;41082;52.822;6.666;2022-08-19T00:50:44;16.70;99.90
55211;DHT22;41082;52.822;6.666;2022-08-19T00:53:15;16.70;99.90
55211;DHT22;41082;52.822;6.666;2022-08-19T00:55:46;16.60;99.90
55211;DHT22;41082;52.822;6.666;2022-08-19T00:58:15;16.60;99.90
55211;DHT22;41082;52.822;6.666;2022-08-19T01:00:41;16.60;99.90
55211;DHT22;41082;52.822;6.666;2022-08-19T01:03:10;16.50;99.90
55211;DHT22;41082;52.822;6.666;2022-08-19T01:05:37;16.50;99.90
55211;DHT22;41082;52.822;6.666;2022-08-19T01:08:05;16.50;99.90
55211;DHT22;41082;52.822;6.666;2022-08-19T01:10:35;16.50;99.90
55211;DHT22;41082;52.822;6.666;2022-08-19T01:13:03;16.40;99.90
55211;DHT22;41082;52.822;6.666;2022-08-19T01:15:33;16.40;99.90
55211;DHT22;41082;52.822;6.666;2022-08-19T01:18:07;16.40;99.90
55211;DHT22;41082;52.822;6.666;2022-08-19T01:20:33;16.40;99.90
55211;DHT22;41082;52.822;6.666;2022-08-19T01:23:00;16.30;99.90
55211;DHT22;41082;52.822;6.666;2022-08-19T01:25:41;16.30;99.90
55211;DHT22;41082;52.822;6.666;2022-08-19T01:28:24;16.30;99.90
55211;DHT22;41082;52.822;6.666;2022-08-19T01:30:52;16.30;99.90
55211;DHT22;41082;52.822;6.666;2022-08-19T01:33:18;16.30;99.90
55211;DHT22;41082;52.822;6.666;2022-08-19T01:35:45;16.20;99.90
55211;DHT22;41082;52.822;6.666;2022-08-19T01:38:24;16.30;99.90
55211;DHT22;41082;52.822;6.666;2022-08-19T01:40:51;16.20;99.90
55211;DHT22;41082;52.822;6.666;2022-08-19T01:43:17;16.20;99.90
55211;DHT22;41082;52.822;6.666;2022-08-19T01:45:45;16.20;99.90
55211;DHT22;41082;52.822;6.666;2022-08-19T01:48:11;16.20;99.90
55211;DHT22;41082;52.822;6.666;2022-08-19T01:50:37;16.10;99.90
55211;DHT22;41082;52.822;6.666;2022-08-19T01:53:06;16.10;99.90
55211;DHT22;41082;52.822;6.666;2022-08-19T01:55:33;16.10;99.90
55211;DHT22;41082;52.822;6.666;2022-08-19T01:58:02;16.10;99.90
55211;DHT22;41082;52.822;6.666;2022-08-19T02:00:31;16.10;99.90
55211;DHT22;41082;52.822;6.666;2022-08-19T02:02:57;16.10;99.90
55211;DHT22;41082;52.822;6.666;2022-08-19T02:05:23;16.10;99.90
55211;DHT22;41082;52.822;6.666;2022-08-19T02:07:49;16.00;99.90
55211;DHT22;41082;52.822;6.666;2022-08-19T02:10:19;16.00;99.90
55211;DHT22;41082;52.822;6.666;2022-08-19T02:12:45;16.00;99.90
55211;DHT22;41082;52.822;6.666;2022-08-19T02:15:11;16.00;99.90
55211;DHT22;41082;52.822;6.666;2022-08-19T02:17:37;16.00;99.90
55211;DHT22;41082;52.822;6.666;2022-08-19T02:20:04;15.90;99.90
55211;DHT22;41082;52.822;6.666;2022-08-19T02:22:30;15.90;99.90
55211;DHT22;41082;52.822;6.666;2022-08-19T02:24:56;15.80;99.90
55211;DHT22;41082;52.822;6.666;2022-08-19T02:27:22;15.80;99.90
55211;DHT22;41082;52.822;6.666;2022-08-19T02:29:49;15.80;99.90
55211;DHT22;41082;52.822;6.666;2022-08-19T02:32:16;15.70;99.90
55211;DHT22;41082;52.822;6.666;2022-08-19T02:34:42;15.70;99.90
55211;DHT22;41082;52.822;6.666;2022-08-19T02:37:08;15.60;99.90
55211;DHT22;41082;52.822;6.666;2022-08-19T02:39:53;15.60;99.90
55211;DHT22;41082;52.822;6.666;2022-08-19T02:42:19;15.60;99.90
55211;DHT22;41082;52.822;6.666;2022-08-19T02:44:44;15.50;99.90
55211;DHT22;41082;52.822;6.666;2022-08-19T02:47:10;15.50;99.90
55211;DHT22;41082;52.822;6.666;2022-08-19T02:49:36;15.50;99.90
55211;DHT22;41082;52.822;6.666;2022-08-19T02:52:02;15.50;99.90
55211;DHT22;41082;52.822;6.666;2022-08-19T02:54:28;15.40;99.90
55211;DHT22;41082;52.822;6.666;2022-08-19T02:56:54;15.50;99.90
55211;DHT22;41082;52.822;6.666;2022-08-19T02:59:19;15.40;99.90
55211;DHT22;41082;52.822;6.666;2022-08-19T03:01:45;15.40;99.90
55211;DHT22;41082;52.822;6.666;2022-08-19T03:04:15;15.40;99.90
55211;DHT22;41082;52.822;6.666;2022-08-19T03:06:43;15.40;99.90
55211;DHT22;41082;52.822;6.666;2022-08-19T03:09:09;15.40;99.90
55211;DHT22;41082;52.822;6.666;2022-08-19T03:11:35;15.40;99.90
55211;DHT22;41082;52.822;6.666;2022-08-19T03:14:02;15.40;99.90
55211;DHT22;41082;52.822;6.666;2022-08-19T03:16:31;15.40;99.90
55211;DHT22;41082;52.822;6.666;2022-08-19T03:18:57;15.40;99.90
55211;DHT22;41082;52.822;6.666;2022-08-19T03:21:26;15.40;99.90
55211;DHT22;41082;52.822;6.666;2022-08-19T03:23:57;15.40;99.90
55211;DHT22;41082;52.822;6.666;2022-08-19T03:26:23;15.40;99.90
55211;DHT22;41082;52.822;6.666;2022-08-19T03:28:49;15.40;99.90
55211;DHT22;41082;52.822;6.666;2022-08-19T03:31:20;15.30;99.90
55211;DHT22;41082;52.822;6.666;2022-08-19T03:33:50;15.40;99.90
55211;DHT22;41082;52.822;6.666;2022-08-19T03:36:19;15.30;99.90
55211;DHT22;41082;52.822;6.666;2022-08-19T03:38:49;15.30;99.90
55211;DHT22;41082;52.822;6.666;2022-08-19T03:41:21;15.30;99.90
55211;DHT22;41082;52.822;6.666;2022-08-19T03:43:47;15.30;99.90
55211;DHT22;41082;52.822;6.666;2022-08-19T03:46:16;15.30;99.90
55211;DHT22;41082;52.822;6.666;2022-08-19T03:48:43;15.30;99.90
55211;DHT22;41082;52.822;6.666;2022-08-19T03:51:21;15.30;99.90
55211;DHT22;41082;52.822;6.666;2022-08-19T03:53:47;15.30;99.90
55211;DHT22;41082;52.822;6.666;2022-08-19T03:56:14;15.30;99.90
55211;DHT22;41082;52.822;6.666;2022-08-19T03:58:40;15.20;99.90
55211;DHT22;41082;52.822;6.666;2022-08-19T04:01:11;15.20;99.90
55211;DHT22;41082;52.822;6.666;2022-08-19T04:03:38;15.20;99.90
55211;DHT22;41082;52.822;6.666;2022-08-19T04:06:24;15.20;99.90
55211;DHT22;41082;52.822;6.666;2022-08-19T04:08:52;15.10;99.90
55211;DHT22;41082;52.822;6.666;2022-08-19T04:11:26;15.10;99.90
55211;DHT22;41082;52.822;6.666;2022-08-19T04:13:53;15.10;99.90
55211;DHT22;41082;52.822;6.666;2022-08-19T04:16:20;15.00;99.90
55211;DHT22;41082;52.822;6.666;2022-08-19T04:18:47;15.00;99.90
55211;DHT22;41082;52.822;6.666;2022-08-19T04:21:23;15.00;99.90
55211;DHT22;41082;52.822;6.666;2022-08-19T04:23:49;15.00;99.90
55211;DHT22;41082;52.822;6.666;2022-08-19T04:26:18;14.90;99.90
55211;DHT22;41082;52.822;6.666;2022-08-19T04:28:44;14.90;99.90
55211;DHT22;41082;52.822;6.666;2022-08-19T04:31:15;14.90;99.90
55211;DHT22;41082;52.822;6.666;2022-08-19T04:33:41;14.90;99.90
55211;DHT22;41082;52.822;6.666;2022-08-19T04:36:07;14.80;99.90
55211;DHT22;41082;52.822;6.666;2022-08-19T04:38:35;14.80;99.90
55211;DHT22;41082;52.822;6.666;2022-08-19T04:41:02;14.80;99.90
55211;DHT22;41082;52.822;6.666;2022-08-19T04:43:47;14.70;99.90
55211;DHT22;41082;52.822;6.666;2022-08-19T04:46:15;14.70;99.90
55211;DHT22;41082;52.822;6.666;2022-08-19T04:48:42;14.70;99.90
55211;DHT22;41082;52.822;6.666;2022-08-19T04:51:10;14.70;99.90
55211;DHT22;41082;52.822;6.666;2022-08-19T04:53:39;14.70;99.90
55211;DHT22;41082;52.822;6.666;2022-08-19T04:56:08;14.70;99.90
55211;DHT22;41082;52.822;6.666;2022-08-19T04:58:35;14.60;99.90
55211;DHT22;41082;52.822;6.666;2022-08-19T05:01:02;14.70;99.90
55211;DHT22;41082;52.822;6.666;2022-08-19T05:03:28;14.70;99.90
55211;DHT22;41082;52.822;6.666;2022-08-19T05:06:04;14.70;99.90
55211;DHT22;41082;52.822;6.666;2022-08-19T05:08:32;14.70;99.90
55211;DHT22;41082;52.822;6.666;2022-08-19T05:10:59;14.70;99.90
55211;DHT22;41082;52.822;6.666;2022-08-19T05:13:25;14.70;99.90
55211;DHT22;41082;52.822;6.666;2022-08-19T05:15:58;14.70;99.90
55211;DHT22;41082;52.822;6.666;2022-08-19T05:18:24;14.70;99.90
55211;DHT22;41082;52.822;6.666;2022-08-19T05:21:11;14.70;99.90
55211;DHT22;41082;52.822;6.666;2022-08-19T05:23:55;14.70;99.90
55211;DHT22;41082;52.822;6.666;2022-08-19T05:26:21;14.70;99.90
55211;DHT22;41082;52.822;6.666;2022-08-19T05:28:47;14.70;99.90
55211;DHT22;41082;52.822;6.666;2022-08-19T05:31:12;14.70;99.90
55211;DHT22;41082;52.822;6.666;2022-08-19T05:33:38;14.70;99.90
55211;DHT22;41082;52.822;6.666;2022-08-19T05:36:05;14.70;99.90
55211;DHT22;41082;52.822;6.666;2022-08-19T05:38:33;14.70;99.90
55211;DHT22;41082;52.822;6.666;2022-08-19T05:40:59;14.70;99.90
55211;DHT22;41082;52.822;6.666;2022-08-19T05:43:25;14.80;99.90
55211;DHT22;41082;52.822;6.666;2022-08-19T05:45:51;14.80;99.90
55211;DHT22;41082;52.822;6.666;2022-08-19T05:48:16;14.70;99.90
55211;DHT22;41082;52.822;6.666;2022-08-19T05:50:45;14.90;99.90
55211;DHT22;41082;52.822;6.666;2022-08-19T05:53:12;14.90;99.90
55211;DHT22;41082;52.822;6.666;2022-08-19T05:55:41;15.00;99.90
55211;DHT22;41082;52.822;6.666;2022-08-19T05:58:07;15.10;99.90
55211;DHT22;41082;52.822;6.666;2022-08-19T06:00:33;15.20;99.90
55211;DHT22;41082;52.822;6.666;2022-08-19T06:02:59;15.30;99.90
55211;DHT22;41082;52.822;6.666;2022-08-19T06:05:29;15.40;99.90
55211;DHT22;41082;52.822;6.666;2022-08-19T06:07:55;15.50;99.90
55211;DHT22;41082;52.822;6.666;2022-08-19T06:10:21;15.70;99.90
55211;DHT22;41082;52.822;6.666;2022-08-19T06:12:47;15.80;99.90
55211;DHT22;41082;52.822;6.666;2022-08-19T06:15:14;15.90;99.90
55211;DHT22;41082;52.822;6.666;2022-08-19T06:17:40;16.00;99.90
55211;DHT22;41082;52.822;6.666;2022-08-19T06:20:09;16.10;99.90
55211;DHT22;41082;52.822;6.666;2022-08-19T06:22:41;16.30;99.90
55211;DHT22;41082;52.822;6.666;2022-08-19T06:25:08;16.40;99.90
55211;DHT22;41082;52.822;6.666;2022-08-19T06:27:34;16.50;99.90
55211;DHT22;41082;52.822;6.666;2022-08-19T06:30:03;16.60;99.90
55211;DHT22;41082;52.822;6.666;2022-08-19T06:32:29;16.80;99.90
55211;DHT22;41082;52.822;6.666;2022-08-19T06:34:55;16.90;99.90
55211;DHT22;41082;52.822;6.666;2022-08-19T06:37:21;17.00;99.90
55211;DHT22;41082;52.822;6.666;2022-08-19T06:39:47;17.10;99.90
55211;DHT22;41082;52.822;6.666;2022-08-19T06:42:13;17.20;99.90
55211;DHT22;41082;52.822;6.666;2022-08-19T06:44:43;17.30;99.90
55211;DHT22;41082;52.822;6.666;2022-08-19T06:47:10;17.40;99.90
55211;DHT22;41082;52.822;6.666;2022-08-19T06:49:37;17.60;99.90
55211;DHT22;41082;52.822;6.666;2022-08-19T06:52:03;17.60;99.90
55211;DHT22;41082;52.822;6.666;2022-08-19T06:54:29;17.80;99.90
55211;DHT22;41082;52.822;6.666;2022-08-19T06:56:57;17.90;99.90
55211;DHT22;41082;52.822;6.666;2022-08-19T06:59:24;18.00;99.90
55211;DHT22;41082;52.822;6.666;2022-08-19T07:01:55;18.20;99.90
55211;DHT22;41082;52.822;6.666;2022-08-19T07:04:23;18.20;99.90
55211;DHT22;41082;52.822;6.666;2022-08-19T07:06:50;18.30;99.90
55211;DHT22;41082;52.822;6.666;2022-08-19T07:09:17;18.50;99.90
55211;DHT22;41082;52.822;6.666;2022-08-19T07:11:48;18.50;99.90
55211;DHT22;41082;52.822;6.666;2022-08-19T07:14:15;18.60;99.90
55211;DHT22;41082;52.822;6.666;2022-08-19T07:16:44;18.70;99.90
55211;DHT22;41082;52.822;6.666;2022-08-19T07:19:11;18.80;99.90
55211;DHT22;41082;52.822;6.666;2022-08-19T07:21:38;18.90;99.90
55211;DHT22;41082;52.822;6.666;2022-08-19T07:24:04;19.00;99.90
55211;DHT22;41082;52.822;6.666;2022-08-19T07:26:32;19.10;99.90
55211;DHT22;41082;52.822;6.666;2022-08-19T07:28:58;19.20;99.90
55211;DHT22;41082;52.822;6.666;2022-08-19T07:31:27;19.30;99.90
55211;DHT22;41082;52.822;6.666;2022-08-19T07:33:54;19.30;99.90
55211;DHT22;41082;52.822;6.666;2022-08-19T07:36:28;19.40;99.90
55211;DHT22;41082;52.822;6.666;2022-08-19T07:38:56;19.50;99.90
55211;DHT22;41082;52.822;6.666;2022-08-19T07:41:25;19.60;99.90
55211;DHT22;41082;52.822;6.666;2022-08-19T07:43:51;19.70;99.90
55211;DHT22;41082;52.822;6.666;2022-08-19T07:46:17;19.80;99.90
55211;DHT22;41082;52.822;6.666;2022-08-19T07:48:46;19.90;99.90
55211;DHT22;41082;52.822;6.666;2022-08-19T07:51:15;20.00;99.90
55211;DHT22;41082;52.822;6.666;2022-08-19T07:53:41;20.10;99.90
55211;DHT22;41082;52.822;6.666;2022-08-19T07:56:08;20.10;99.90
55211;DHT22;41082;52.822;6.666;2022-08-19T07:58:41;20.20;99.90
55211;DHT22;41082;52.822;6.666;2022-08-19T08:01:11;20.30;99.90
55211;DHT22;41082;52.822;6.666;2022-08-19T08:03:37;20.50;99.90
55211;DHT22;41082;52.822;6.666;2022-08-19T08:06:23;20.50;99.90
55211;DHT22;41082;52.822;6.666;2022-08-19T08:09:08;20.60;99.90
55211;DHT22;41082;52.822;6.666;2022-08-19T08:11:43;20.70;99.90
55211;DHT22;41082;52.822;6.666;2022-08-19T08:14:20;20.80;99.90
55211;DHT22;41082;52.822;6.666;2022-08-19T08:16:48;20.80;99.90
55211;DHT22;41082;52.822;6.666;2022-08-19T08:19:15;20.90;99.90
55211;DHT22;41082;52.822;6.666;2022-08-19T08:21:41;21.00;99.90
55211;DHT22;41082;52.822;6.666;2022-08-19T08:24:08;21.10;99.90
55211;DHT22;41082;52.822;6.666;2022-08-19T08:26:33;21.10;99.90
55211;DHT22;41082;52.822;6.666;2022-08-19T08:28:59;21.20;99.90
55211;DHT22;41082;52.822;6.666;2022-08-19T08:31:24;21.30;99.90
55211;DHT22;41082;52.822;6.666;2022-08-19T08:33:50;21.40;99.90
55211;DHT22;41082;52.822;6.666;2022-08-19T08:36:16;21.50;99.90
55211;DHT22;41082;52.822;6.666;2022-08-19T08:38:43;21.60;99.90
55211;DHT22;41082;52.822;6.666;2022-08-19T08:41:19;21.80;99.90
55211;DHT22;41082;52.822;6.666;2022-08-19T08:43:50;22.00;99.90
55211;DHT22;41082;52.822;6.666;2022-08-19T08:46:25;22.20;99.90
55211;DHT22;41082;52.822;6.666;2022-08-19T08:52:07;22.50;99.90
55211;DHT22;41082;52.822;6.666;2022-08-19T08:54:43;22.70;99.90
55211;DHT22;41082;52.822;6.666;2022-08-19T08:57:39;22.90;99.90
55211;DHT22;41082;52.822;6.666;2022-08-19T09:00:22;23.10;99.90
55211;DHT22;41082;52.822;6.666;2022-08-19T09:02:50;23.30;99.90
55211;DHT22;41082;52.822;6.666;2022-08-19T09:05:16;23.40;99.90
55211;DHT22;41082;52.822;6.666;2022-08-19T09:08:02;23.60;99.90
55211;DHT22;41082;52.822;6.666;2022-08-19T09:10:50;23.80;99.90
55211;DHT22;41082;52.822;6.666;2022-08-19T09:13:38;24.00;99.90
55211;DHT22;41082;52.822;6.666;2022-08-19T09:16:11;24.10;99.90
55211;DHT22;41082;52.822;6.666;2022-08-19T09:18:42;24.20;99.90
55211;DHT22;41082;52.822;6.666;2022-08-19T09:21:08;24.40;99.90
55211;DHT22;41082;52.822;6.666;2022-08-19T09:23:36;24.60;99.90
55211;DHT22;41082;52.822;6.666;2022-08-19T09:26:07;24.70;99.90
55211;DHT22;41082;52.822;6.666;2022-08-19T09:28:33;24.90;99.90
55211;DHT22;41082;52.822;6.666;2022-08-19T09:30:59;25.00;99.90
55211;DHT22;41082;52.822;6.666;2022-08-19T09:33:24;25.00;99.90
55211;DHT22;41082;52.822;6.666;2022-08-19T09:35:50;25.10;99.90
55211;DHT22;41082;52.822;6.666;2022-08-19T09:38:15;25.30;99.90
55211;DHT22;41082;52.822;6.666;2022-08-19T09:40:41;25.40;99.90
55211;DHT22;41082;52.822;6.666;2022-08-19T09:43:07;25.50;99.90
55211;DHT22;41082;52.822;6.666;2022-08-19T09:45:33;25.60;99.90
55211;DHT22;41082;52.822;6.666;2022-08-19T09:47:58;25.80;99.90
55211;DHT22;41082;52.822;6.666;2022-08-19T09:50:24;25.90;99.90
55211;DHT22;41082;52.822;6.666;2022-08-19T09:52:50;26.00;99.70
55211;DHT22;41082;52.822;6.666;2022-08-19T09:55:17;26.00;99.00
55211;DHT22;41082;52.822;6.666;2022-08-19T09:57:43;26.10;99.20
55211;DHT22;41082;52.822;6.666;2022-08-19T10:00:09;26.30;99.10
55211;DHT22;41082;52.822;6.666;2022-08-19T10:02:35;26.30;99.10
55211;DHT22;41082;52.822;6.666;2022-08-19T10:05:01;26.50;98.90
55211;DHT22;41082;52.822;6.666;2022-08-19T10:07:45;26.60;99.00
55211;DHT22;41082;52.822;6.666;2022-08-19T10:10:12;26.70;98.20
55211;DHT22;41082;52.822;6.666;2022-08-19T10:12:37;26.80;96.90
55211;DHT22;41082;52.822;6.666;2022-08-19T10:15:05;26.90;95.90
55211;DHT22;41082;52.822;6.666;2022-08-19T10:17:31;26.90;95.10
55211;DHT22;41082;52.822;6.666;2022-08-19T10:19:59;26.90;94.30
55211;DHT22;41082;52.822;6.666;2022-08-19T10:22:25;27.00;93.80
55211;DHT22;41082;52.822;6.666;2022-08-19T10:24:51;26.90;94.00
55211;DHT22;41082;52.822;6.666;2022-08-19T10:27:17;26.90;94.20
55211;DHT22;41082;52.822;6.666;2022-08-19T10:29:43;26.90;94.70
55211;DHT22;41082;52.822;6.666;2022-08-19T10:32:09;27.00;94.20
55211;DHT22;41082;52.822;6.666;2022-08-19T10:34:36;27.10;94.00
55211;DHT22;41082;52.822;6.666;2022-08-19T10:37:04;27.20;94.20
55211;DHT22;41082;52.822;6.666;2022-08-19T10:39:35;27.20;93.40
55211;DHT22;41082;52.822;6.666;2022-08-19T10:42:06;27.30;93.40
55211;DHT22;41082;52.822;6.666;2022-08-19T10:44:33;27.30;93.40
55211;DHT22;41082;52.822;6.666;2022-08-19T10:47:01;27.40;93.00
55211;DHT22;41082;52.822;6.666;2022-08-19T10:49:27;27.40;93.10
55211;DHT22;41082;52.822;6.666;2022-08-19T10:51:52;27.50;92.10
55211;DHT22;41082;52.822;6.666;2022-08-19T10:54:37;27.50;90.90
55211;DHT22;41082;52.822;6.666;2022-08-19T10:57:21;27.60;91.10
55211;DHT22;41082;52.822;6.666;2022-08-19T10:59:49;27.60;89.80
55211;DHT22;41082;52.822;6.666;2022-08-19T11:02:15;27.70;89.00
55211;DHT22;41082;52.822;6.666;2022-08-19T11:04:41;27.80;90.10
55211;DHT22;41082;52.822;6.666;2022-08-19T11:07:07;27.90;90.60
55211;DHT22;41082;52.822;6.666;2022-08-19T11:09:39;28.10;86.50
55211;DHT22;41082;52.822;6.666;2022-08-19T11:12:05;28.20;87.70
55211;DHT22;41082;52.822;6.666;2022-08-19T11:14:32;28.30;85.40
55211;DHT22;41082;52.822;6.666;2022-08-19T11:16:59;28.40;81.50
55211;DHT22;41082;52.822;6.666;2022-08-19T11:19:24;28.40;79.90
55211;DHT22;41082;52.822;6.666;2022-08-19T11:21:51;28.40;80.90
55211;DHT22;41082;52.822;6.666;2022-08-19T11:24:23;28.30;81.00
55211;DHT22;41082;52.822;6.666;2022-08-19T11:26:50;28.20;81.50
55211;DHT22;41082;52.822;6.666;2022-08-19T11:29:19;28.10;84.60
55211;DHT22;41082;52.822;6.666;2022-08-19T11:31:46;28.20;85.30
55211;DHT22;41082;52.822;6.666;2022-08-19T11:34:15;28.20;86.40
55211;DHT22;41082;52.822;6.666;2022-08-19T11:36:44;28.30;85.10
55211;DHT22;41082;52.822;6.666;2022-08-19T11:39:12;28.30;82.20
55211;DHT22;41082;52.822;6.666;2022-08-19T11:41:39;28.20;82.10
55211;DHT22;41082;52.822;6.666;2022-08-19T11:44:06;28.10;81.80
55211;DHT22;41082;52.822;6.666;2022-08-19T11:46:34;28.10;80.70
55211;DHT22;41082;52.822;6.666;2022-08-19T11:49:01;28.00;79.50
55211;DHT22;41082;52.822;6.666;2022-08-19T11:51:29;27.90;79.90
55211;DHT22;41082;52.822;6.666;2022-08-19T11:53:56;27.70;79.90
55211;DHT22;41082;52.822;6.666;2022-08-19T11:56:24;27.70;79.90
55211;DHT22;41082;52.822;6.666;2022-08-19T11:58:50;27.60;80.00
55211;DHT22;41082;52.822;6.666;2022-08-19T12:01:19;27.60;79.00
55211;DHT22;41082;52.822;6.666;2022-08-19T12:03:47;27.60;80.20
55211;DHT22;41082;52.822;6.666;2022-08-19T12:06:15;27.60;81.90
55211;DHT22;41082;52.822;6.666;2022-08-19T12:08:42;27.60;81.20
55211;DHT22;41082;52.822;6.666;2022-08-19T12:11:09;27.70;82.00
55211;DHT22;41082;52.822;6.666;2022-08-19T12:13:35;27.70;83.00
55211;DHT22;41082;52.822;6.666;2022-08-19T12:16:08;27.80;83.10
55211;DHT22;41082;52.822;6.666;2022-08-19T12:18:36;28.00;84.30
55211;DHT22;41082;52.822;6.666;2022-08-19T12:21:01;28.10;84.30
55211;DHT22;41082;52.822;6.666;2022-08-19T12:23:27;28.10;82.40
55211;DHT22;41082;52.822;6.666;2022-08-19T12:25:53;28.20;81.30
55211;DHT22;41082;52.822;6.666;2022-08-19T12:28:21;28.20;79.10
55211;DHT22;41082;52.822;6.666;2022-08-19T12:30:48;28.20;77.10
55211;DHT22;41082;52.822;6.666;2022-08-19T12:33:16;28.30;75.90
55211;DHT22;41082;52.822;6.666;2022-08-19T12:35:43;28.30;75.00
55211;DHT22;41082;52.822;6.666;2022-08-19T12:38:10;28.30;74.00
55211;DHT22;41082;52.822;6.666;2022-08-19T12:40:36;28.30;74.30
55211;DHT22;41082;52.822;6.666;2022-08-19T12:43:02;28.40;75.20
55211;DHT22;41082;52.822;6.666;2022-08-19T12:45:27;28.40;75.40
55211;DHT22;41082;52.822;6.666;2022-08-19T12:47:53;28.50;76.30
55211;DHT22;41082;52.822;6.666;2022-08-19T12:50:19;28.50;76.00
55211;DHT22;41082;52.822;6.666;2022-08-19T12:52:47;28.60;75.80
55211;DHT22;41082;52.822;6.666;2022-08-19T12:55:14;28.60;72.80
55211;DHT22;41082;52.822;6.666;2022-08-19T12:57:39;28.60;69.70
55211;DHT22;41082;52.822;6.666;2022-08-19T13:00:09;28.60;70.80
55211;DHT22;41082;52.822;6.666;2022-08-19T13:02:43;28.70;71.60
55211;DHT22;41082;52.822;6.666;2022-08-19T13:05:14;28.80;70.00
55211;DHT22;41082;52.822;6.666;2022-08-19T13:07:41;28.80;67.90
55211;DHT22;41082;52.822;6.666;2022-08-19T13:10:11;28.80;67.10
55211;DHT22;41082;52.822;6.666;2022-08-19T13:12:38;28.80;66.20
55211;DHT22;41082;52.822;6.666;2022-08-19T13:15:04;28.70;66.90
55211;DHT22;41082;52.822;6.666;2022-08-19T13:17:30;28.80;68.00
55211;DHT22;41082;52.822;6.666;2022-08-19T13:19:58;28.80;68.60
55211;DHT22;41082;52.822;6.666;2022-08-19T13:22:24;28.80;68.70
55211;DHT22;41082;52.822;6.666;2022-08-19T13:24:50;28.90;65.40
55211;DHT22;41082;52.822;6.666;2022-08-19T13:27:15;28.90;64.70
55211;DHT22;41082;52.822;6.666;2022-08-19T13:29:42;28.90;65.50
55211;DHT22;41082;52.822;6.666;2022-08-19T13:32:26;28.90;65.70
55211;DHT22;41082;52.822;6.666;2022-08-19T13:35:10;28.90;65.70
55211;DHT22;41082;52.822;6.666;2022-08-19T13:37:36;29.00;65.60
55211;DHT22;41082;52.822;6.666;2022-08-19T13:40:12;29.00;65.40
55211;DHT22;41082;52.822;6.666;2022-08-19T13:42:40;29.10;64.60
55211;DHT22;41082;52.822;6.666;2022-08-19T13:45:06;29.20;63.80
55211;DHT22;41082;52.822;6.666;2022-08-19T13:47:33;29.20;62.30
55211;DHT22;41082;52.822;6.666;2022-08-19T13:50:11;29.20;63.00
55211;DHT22;41082;52.822;6.666;2022-08-19T13:52:38;29.30;63.20
55211;DHT22;41082;52.822;6.666;2022-08-19T13:55:05;29.30;61.90
55211;DHT22;41082;52.822;6.666;2022-08-19T13:57:31;29.20;62.10
55211;DHT22;41082;52.822;6.666;2022-08-19T14:00:00;29.30;61.60
55211;DHT22;41082;52.822;6.666;2022-08-19T14:02:26;29.20;62.20
55211;DHT22;41082;52.822;6.666;2022-08-19T14:04:52;29.10;62.40
55211;DHT22;41082;52.822;6.666;2022-08-19T14:07:18;29.10;62.50
55211;DHT22;41082;52.822;6.666;2022-08-19T14:09:43;29.10;62.00
55211;DHT22;41082;52.822;6.666;2022-08-19T14:12:09;29.10;60.80
55211;DHT22;41082;52.822;6.666;2022-08-19T14:14:38;29.00;60.40
55211;DHT22;41082;52.822;6.666;2022-08-19T14:17:08;28.90;61.20
55211;DHT22;41082;52.822;6.666;2022-08-19T14:19:34;28.90;62.50
55211;DHT22;41082;52.822;6.666;2022-08-19T14:21:59;28.80;62.50
55211;DHT22;41082;52.822;6.666;2022-08-19T14:24:25;28.70;63.50
55211;DHT22;41082;52.822;6.666;2022-08-19T14:26:51;28.50;64.40
55211;DHT22;41082;52.822;6.666;2022-08-19T14:29:16;28.40;64.80
55211;DHT22;41082;52.822;6.666;2022-08-19T14:31:42;28.20;66.00
55211;DHT22;41082;52.822;6.666;2022-08-19T14:34:09;28.20;68.00
55211;DHT22;41082;52.822;6.666;2022-08-19T14:36:36;28.10;68.70
55211;DHT22;41082;52.822;6.666;2022-08-19T14:39:03;28.00;69.90
55211;DHT22;41082;52.822;6.666;2022-08-19T14:41:29;28.00;71.20
55211;DHT22;41082;52.822;6.666;2022-08-19T14:43:56;28.00;73.60
55211;DHT22;41082;52.822;6.666;2022-08-19T14:46:27;27.90;74.50
55211;DHT22;41082;52.822;6.666;2022-08-19T14:48:53;27.80;76.00
55211;DHT22;41082;52.822;6.666;2022-08-19T14:51:23;27.60;77.80
55211;DHT22;41082;52.822;6.666;2022-08-19T14:53:49;27.50;76.30
55211;DHT22;41082;52.822;6.666;2022-08-19T14:56:21;27.50;77.00
55211;DHT22;41082;52.822;6.666;2022-08-19T14:58:47;27.40;76.70
55211;DHT22;41082;52.822;6.666;2022-08-19T15:01:16;27.50;77.10
55211;DHT22;41082;52.822;6.666;2022-08-19T15:03:42;27.50;77.30
55211;DHT22;41082;52.822;6.666;2022-08-19T15:06:09;27.50;77.30
55211;DHT22;41082;52.822;6.666;2022-08-19T15:08:36;27.50;77.50
55211;DHT22;41082;52.822;6.666;2022-08-19T15:11:17;27.40;79.00
55211;DHT22;41082;52.822;6.666;2022-08-19T15:13:43;27.30;79.20
55211;DHT22;41082;52.822;6.666;2022-08-19T15:16:10;27.20;80.40
55211;DHT22;41082;52.822;6.666;2022-08-19T15:18:36;27.10;81.40
55211;DHT22;41082;52.822;6.666;2022-08-19T15:21:02;27.00;83.30
55211;DHT22;41082;52.822;6.666;2022-08-19T15:23:29;26.90;85.20
55211;DHT22;41082;52.822;6.666;2022-08-19T15:25:55;26.80;86.50
55211;DHT22;41082;52.822;6.666;2022-08-19T15:28:22;26.80;88.80
55211;DHT22;41082;52.822;6.666;2022-08-19T15:30:48;26.70;90.00
55211;DHT22;41082;52.822;6.666;2022-08-19T15:33:15;26.70;90.50
55211;DHT22;41082;52.822;6.666;2022-08-19T15:35:42;26.60;90.30
55211;DHT22;41082;52.822;6.666;2022-08-19T15:38:08;26.50;90.10
55211;DHT22;41082;52.822;6.666;2022-08-19T15:40:34;26.40;90.20